CheckWX is a tool to help pilots better visualize weather data.  It is not intended as a substitute for an official pre-flight weather briefing.

05:59:07 UTC

LICT TAF
Vincenzo Florio Trapani-Birgi Airport
Trapani, Italy
TAF LICT 240500Z 2406/2415 02015G30KT 9999 BKN030 TEMPO 2406/2410 36020G40KT

Feb-24@
06:00 UTC

Feb-24 @ 06:00 UTC

Feb-24@
15:00 UTC

Feb-24 @ 15:00 UTC

TAF LICT 240500Z 2406/2415 02015G30KT 9999 BKN030
Wind
  • 020° at 15 KTS
  • {Gusting to 30 KTS
Cloud Levels
  • Broken at 3,000' AGL

Feb-24@
06:00 UTC

Feb-24 @ 06:00 UTC

Feb-24@
10:00 UTC

Feb-24 @ 10:00 UTC

TEMPO 2406/2410 36020G40KT

Temporary

Temporary Changes expected for less than half the time period

Wind
  • 360° at 20 KTS
  • {Gusting to 40 KTS